BIENTÔT MET'MAP
version 2.0 !

Prévue avant fin octobre,
la nouvelle version sera
plus belle, plus complète
et hébergée sur un serveur
3 fois plus puissant...
et toujours gratuite !


Pas compatible ?
Essayez la version Mobile !

SE CONNECTER : | S'inscrire | Disclaimer | Découvrir Orbifly |
Code OACI :
LŽgende : VFR VFR Marginal IFR IFR Intensif IFR TrŽs Intensif
Visi :
Plafond :
>= 8 km
>= 3000ft
5 ˆ 8 km
1000 ˆ 3000 ft
1500m ˆ 5 km
500 ˆ 1000 ft
800 ˆ 1500m
200 ˆ 500 ft
< 800m
< 200 ft

METAR - EGOM RAF Spadeadam - 15 Sep 2019 13:59 UTC - Data Source NOAA   



- Altitude de l'aérodrome : 1066 ft
- Pas de NOTAMs connus.


EGOM - RAF Spadeadam

Dernier METAR connu : 2015/08/11 07:50 EGOM 110750Z AUTO 25007KT 9999 FEW011/// 13/10 Q1018
Prévision TAF périmée.

Source NOAA


MET'MAP, la Météo Aéronautique d'un coup d'oeil ! - Copyright ORBIFLY Décembre 2007

Développement & Programmation : Alexandra Zaïnal
Co-Développement : Marc-Olivier Méhu
Soutien technique & logistique : Manuel Goepfert
Conception & Financement : Baudouin d'Aumeries